Time;durP1;ratioP1;P1;durP2;ratioP2;P2;SDS_P1;SDS_P2;PMS_P1;PMS_P2;Temp;Humidity;BMP_temperature;BMP_pressure;BME280_temperature;BME280_humidity;BME280_pressure;Samples;Min_cycle;Max_cycle;Signal;HPM_P1;HPM_P2
2022/07/17 00:01:19;;;;;;;8.75;3.63;;;;;;;14.13;73.33;96302.66;5012241;28;20038;-78
2022/07/17 00:03:44;;;;;;;5.63;3.58;;;;;;;14.13;72.54;96302.66;5008253;28;20057;-78
2022/07/17 00:06:10;;;;;;;6.05;3.35;;;;;;;14.10;73.11;96300.53;5011554;28;20042;-78
2022/07/17 00:08:36;;;;;;;6.03;3.17;;;;;;;14.11;72.61;96299.50;5027715;28;20034;-77
2022/07/17 00:11:01;;;;;;;5.53;3.40;;;;;;;13.99;73.32;96303.25;5024445;28;20050;-78
2022/07/17 00:13:27;;;;;;;7.43;3.20;;;;;;;13.89;74.27;96308.56;5012713;28;20091;-78
2022/07/17 00:15:52;;;;;;;8.77;3.60;;;;;;;13.86;74.71;96306.44;5012858;28;20304;-78
2022/07/17 00:18:18;;;;;;;7.15;3.83;;;;;;;13.72;75.08;96308.91;5008145;28;20042;-77
2022/07/17 00:20:43;;;;;;;5.43;3.53;;;;;;;13.60;76.55;96301.25;5009433;28;20041;-77
2022/07/17 00:23:09;;;;;;;6.63;3.40;;;;;;;13.66;76.53;96310.78;5010579;28;20427;-77
2022/07/17 00:25:35;;;;;;;6.53;3.30;;;;;;;13.65;76.35;96306.53;5008107;28;20419;-77
2022/07/17 00:28:01;;;;;;;5.63;3.03;;;;;;;13.50;76.65;96306.56;5010235;28;20092;-78
2022/07/17 00:30:27;;;;;;;6.57;3.47;;;;;;;13.33;77.80;96307.63;5008273;28;20042;-78
2022/07/17 00:32:52;;;;;;;8.32;3.33;;;;;;;13.43;77.79;96300.75;5012530;28;20543;-78
2022/07/17 00:35:18;;;;;;;5.78;3.13;;;;;;;13.33;78.50;96306.81;5012319;28;20041;-77
2022/07/17 00:37:44;;;;;;;5.90;3.10;;;;;;;13.36;78.62;96300.25;5011560;28;20038;-77
2022/07/17 00:40:14;;;;;;;6.00;3.30;;;;;;;13.31;78.84;96304.44;5008514;28;20046;-77
2022/07/17 00:42:40;;;;;;;5.63;3.20;;;;;;;13.21;79.51;96304.47;5011100;28;20120;-77
2022/07/17 00:45:11;;;;;;;5.35;2.97;;;;;;;13.13;78.88;96302.34;5024672;28;20050;-77
2022/07/17 00:47:56;;;;;;;6.75;3.42;;;;;;;13.10;78.98;96297.59;5009894;28;20503;-77
2022/07/17 00:50:25;;;;;;;6.43;3.25;;;;;;;12.93;79.37;96298.69;5012511;28;20088;-78
2022/07/17 00:52:50;;;;;;;5.25;2.90;;;;;;;13.04;79.75;96303.97;5028454;28;20116;-77
2022/07/17 00:55:18;;;;;;;6.75;3.20;;;;;;;13.05;79.89;96303.69;5012907;28;20549;-77
2022/07/17 00:57:46;;;;;;;4.22;2.92;;;;;;;13.08;79.35;96300.50;5011740;28;20488;-78
2022/07/17 01:00:12;;;;;;;6.35;3.30;;;;;;;12.88;79.12;96301.31;5012143;28;20096;-77
2022/07/17 01:02:38;;;;;;;6.05;3.25;;;;;;;13.02;79.35;96301.59;5014009;28;20492;-78
2022/07/17 01:05:05;;;;;;;5.72;3.38;;;;;;;13.13;78.55;96299.72;5009562;28;20127;-77
2022/07/17 01:07:30;;;;;;;5.88;3.28;;;;;;;13.10;79.21;96297.59;5010280;28;20044;-78
2022/07/17 01:09:56;;;;;;;6.03;3.50;;;;;;;13.03;79.30;96297.09;5025651;28;20412;-77
2022/07/17 01:12:23;;;;;;;5.88;3.33;;;;;;;12.98;79.25;96301.31;5011086;28;20061;-77
2022/07/17 01:14:49;;;;;;;6.75;3.17;;;;;;;12.89;80.23;96296.84;5004582;28;20045;-78
2022/07/17 01:17:15;;;;;;;5.75;3.38;;;;;;;12.87;80.85;96304.22;5007382;28;20049;-77
2022/07/17 01:19:41;;;;;;;5.68;3.20;;;;;;;12.87;80.52;96299.72;5009851;28;20042;-77
2022/07/17 01:22:06;;;;;;;5.32;3.00;;;;;;;12.84;81.13;96302.91;5010531;28;20046;-77
2022/07/17 01:24:32;;;;;;;6.93;4.28;;;;;;;12.61;81.51;96297.09;5009288;28;20049;-77
2022/07/17 01:26:58;;;;;;;7.22;3.20;;;;;;;12.72;81.43;96292.59;5006132;28;20042;-77
2022/07/17 01:29:24;;;;;;;5.47;3.15;;;;;;;12.59;81.90;96296.53;5005733;28;20050;-77
2022/07/17 01:31:49;;;;;;;5.00;3.03;;;;;;;12.54;82.36;96301.84;5009300;28;20049;-76
2022/07/17 01:34:15;;;;;;;4.05;2.75;;;;;;;12.58;82.59;96300.22;5009134;28;20451;-77
2022/07/17 01:36:41;;;;;;;6.45;3.17;;;;;;;12.40;83.11;96300.75;5008425;28;20049;-77
2022/07/17 01:39:07;;;;;;;6.10;3.20;;;;;;;12.52;83.58;96298.66;5005218;28;20046;-77
2022/07/17 01:41:33;;;;;;;4.93;3.00;;;;;;;12.54;83.09;96296.56;5002910;28;20495;-77
2022/07/17 01:43:58;;;;;;;8.27;3.55;;;;;;;12.53;82.79;96305.53;5007839;28;20096;-77
2022/07/17 01:46:25;;;;;;;5.03;3.25;;;;;;;12.54;82.89;96301.84;5009271;28;20049;-77
2022/07/17 01:48:51;;;;;;;5.57;3.40;;;;;;;12.46;83.77;96304.97;5003912;28;20038;-77
2022/07/17 01:51:16;;;;;;;5.03;3.13;;;;;;;12.38;83.44;96297.56;5006243;28;20049;-77
2022/07/17 01:53:42;;;;;;;6.00;3.40;;;;;;;12.41;83.28;96303.13;5012296;28;20045;-77
2022/07/17 01:56:07;;;;;;;7.82;3.55;;;;;;;12.38;83.24;96301.00;5009091;28;20038;-77
2022/07/17 01:58:33;;;;;;;4.75;2.83;;;;;;;12.27;83.45;96302.03;5010864;28;20053;-77
2022/07/17 02:00:59;;;;;;;6.60;3.30;;;;;;;12.25;84.42;96307.56;5026607;28;20511;-77
2022/07/17 02:03:25;;;;;;;5.07;3.30;;;;;;;12.24;84.11;96308.63;5027727;28;20044;-77
2022/07/17 02:05:50;;;;;;;8.77;3.35;;;;;;;12.21;84.34;96309.16;5028540;28;20042;-77
2022/07/17 02:08:16;;;;;;;9.32;3.40;;;;;;;12.11;84.42;96315.19;5009618;28;20038;-77
2022/07/17 02:10:41;;;;;;;6.07;3.40;;;;;;;12.11;83.94;96309.09;5011870;28;20042;-77
2022/07/17 02:13:07;;;;;;;5.03;3.00;;;;;;;12.07;84.41;96302.78;5012759;28;20038;-78
2022/07/17 02:15:32;;;;;;;6.82;3.38;;;;;;;12.01;85.11;96298.50;5012970;28;20034;-76
2022/07/17 02:17:58;;;;;;;5.15;3.10;;;;;;;12.04;85.00;96303.28;5009124;28;20067;-77
2022/07/17 02:20:24;;;;;;;8.52;3.42;;;;;;;11.92;85.69;96291.09;5011324;28;20049;-77
2022/07/17 02:22:49;;;;;;;5.38;3.08;;;;;;;11.90;86.39;96298.44;5013468;28;20041;-78
2022/07/17 02:25:16;;;;;;;6.63;3.60;;;;;;;11.89;86.71;96296.84;5016135;28;20049;-79
2022/07/17 02:27:42;;;;;;;4.20;3.15;;;;;;;11.79;87.38;96296.81;5024121;28;20041;-78
2022/07/17 02:30:13;;;;;;;8.40;3.60;;;;;;;11.81;87.54;96294.75;5013988;28;20046;-78
2022/07/17 02:32:39;;;;;;;5.57;3.30;;;;;;;11.77;87.66;96298.94;5015231;28;20484;-77
2022/07/17 02:35:06;;;;;;;4.28;3.20;;;;;;;11.69;88.25;96296.78;5010175;28;20277;-77
2022/07/17 02:37:31;;;;;;;6.15;3.17;;;;;;;11.69;88.28;96302.06;5016618;28;20101;-77
2022/07/17 02:39:58;;;;;;;5.13;3.30;;;;;;;11.75;87.92;96307.09;5006006;28;20046;-78
2022/07/17 02:42:26;;;;;;;4.90;3.25;;;;;;;11.75;86.73;96301.03;5029212;28;20471;-77
2022/07/17 02:44:53;;;;;;;6.05;3.60;;;;;;;11.55;87.60;96302.53;5014495;28;20120;-77
2022/07/17 02:47:22;;;;;;;6.22;3.50;;;;;;;11.54;87.96;96295.66;5030038;28;20045;-78
2022/07/17 02:49:48;;;;;;;5.07;3.38;;;;;;;11.54;87.86;96300.94;5000735;28;20042;-77
2022/07/17 02:52:13;;;;;;;6.82;3.53;;;;;;;11.49;88.36;96297.47;5014796;28;20053;-77
2022/07/17 02:54:39;;;;;;;4.78;3.28;;;;;;;11.48;88.66;96301.97;5013732;28;20034;-77
2022/07/17 02:57:04;;;;;;;4.97;3.28;;;;;;;11.39;88.58;96298.19;5014178;28;20054;-78
2022/07/17 02:59:29;;;;;;;6.15;3.65;;;;;;;11.29;89.97;96298.94;5026342;28;20080;-76
2022/07/17 03:01:55;;;;;;;6.93;3.55;;;;;;;11.30;89.37;96308.44;5013595;28;20488;-77
2022/07/17 03:04:20;;;;;;;6.50;3.70;;;;;;;11.36;89.41;96309.25;5011861;28;20044;-77
2022/07/17 03:06:46;;;;;;;6.05;3.63;;;;;;;11.28;90.06;96307.91;5012592;28;20112;-77
2022/07/17 03:09:11;;;;;;;9.70;3.95;;;;;;;11.35;90.57;96307.66;5026711;28;20050;-77
2022/07/17 03:11:37;;;;;;;6.35;3.50;;;;;;;11.27;90.91;96312.34;5009804;28;20038;-77
2022/07/17 03:14:02;;;;;;;7.40;3.60;;;;;;;11.19;91.18;96304.94;5009543;28;20480;-77
2022/07/17 03:16:28;;;;;;;5.28;3.53;;;;;;;11.22;90.91;96312.34;5011615;28;20042;-77
2022/07/17 03:18:53;;;;;;;6.47;3.80;;;;;;;11.13;91.86;96316.47;5007765;28;20049;-77
2022/07/17 03:21:18;;;;;;;5.95;3.33;;;;;;;11.18;91.77;96307.84;5011632;28;20092;-77
2022/07/17 03:23:44;;;;;;;6.47;3.50;;;;;;;11.15;92.37;96308.31;5004554;28;20042;-77
2022/07/17 03:26:09;;;;;;;5.53;3.33;;;;;;;11.14;92.11;96294.34;5011193;28;20053;-77
2022/07/17 03:28:35;;;;;;;5.47;3.55;;;;;;;11.02;92.60;96304.28;5010089;28;20084;-77
2022/07/17 03:31:00;;;;;;;5.25;3.55;;;;;;;10.98;92.26;96297.94;5009664;28;20983;-77
2022/07/17 03:33:26;;;;;;;6.63;3.72;;;;;;;10.96;92.62;96305.28;5011386;28;20042;-77
2022/07/17 03:35:51;;;;;;;7.10;3.70;;;;;;;10.97;92.16;96301.63;5011068;28;20064;-77
2022/07/17 03:38:17;;;;;;;7.28;3.83;;;;;;;10.87;92.97;96303.09;5011847;28;20042;-77
2022/07/17 03:40:42;;;;;;;7.72;3.75;;;;;;;10.85;93.39;96310.47;5011364;28;20061;-78
2022/07/17 03:43:07;;;;;;;6.70;3.70;;;;;;;10.86;93.17;96298.91;5012308;28;20042;-77
2022/07/17 03:45:33;;;;;;;7.85;3.42;;;;;;;10.82;93.37;96300.44;5026370;28;20046;-77
2022/07/17 03:47:58;;;;;;;5.88;3.72;;;;;;;10.81;93.46;96304.13;5026744;28;20050;-77
2022/07/17 03:50:24;;;;;;;6.30;3.78;;;;;;;10.90;93.85;96302.63;5010863;28;20112;-77
2022/07/17 03:52:50;;;;;;;7.25;3.70;;;;;;;10.81;94.33;96304.13;5005192;28;20518;-77
2022/07/17 03:55:16;;;;;;;7.60;4.07;;;;;;;10.87;95.00;96300.47;5011472;28;20392;-77
2022/07/17 03:57:41;;;;;;;5.38;3.53;;;;;;;10.82;95.03;96295.19;5008329;28;20431;-77
2022/07/17 04:00:08;;;;;;;6.75;3.78;;;;;;;10.78;95.47;96309.91;5005376;28;20057;-77
2022/07/17 04:02:33;;;;;;;5.60;3.67;;;;;;;10.75;95.89;96305.13;5009467;28;20034;-77
2022/07/17 04:04:58;;;;;;;5.75;3.60;;;;;;;10.66;96.65;96306.63;5010153;28;20042;-76
2022/07/17 04:07:27;;;;;;;6.47;3.75;;;;;;;10.72;96.41;96310.91;5009236;28;20049;-76
2022/07/17 04:09:58;;;;;;;9.98;4.10;;;;;;;10.81;95.79;96309.38;5007953;28;20038;-76
2022/07/17 04:12:24;;;;;;;6.97;3.60;;;;;;;10.87;95.95;96324.16;5014661;28;20257;-76
2022/07/17 04:14:49;;;;;;;6.55;3.70;;;;;;;10.89;96.35;96322.09;5009159;28;20046;-76
2022/07/17 04:17:15;;;;;;;5.78;3.60;;;;;;;10.94;95.62;96315.28;5008889;28;20057;-78
2022/07/17 04:19:40;;;;;;;9.25;3.75;;;;;;;11.06;95.36;96321.16;5013653;28;20050;-78
2022/07/17 04:22:06;;;;;;;6.25;3.75;;;;;;;11.12;95.04;96325.44;5009863;28;20038;-76
2022/07/17 04:24:31;;;;;;;7.90;3.88;;;;;;;11.00;95.50;96327.44;5009738;28;20045;-77
2022/07/17 04:26:57;;;;;;;5.25;3.53;;;;;;;11.17;95.92;96317.56;5024349;28;20041;-77
2022/07/17 04:29:22;;;;;;;6.60;3.75;;;;;;;11.22;95.24;96320.25;5008661;28;20104;-77
2022/07/17 04:31:48;;;;;;;6.10;3.45;;;;;;;11.26;94.89;96329.22;5007534;28;20042;-76
2022/07/17 04:34:13;;;;;;;8.05;3.83;;;;;;;11.34;94.70;96327.16;5009569;28;20153;-76
2022/07/17 04:36:38;;;;;;;6.50;3.92;;;;;;;11.42;93.59;96324.03;5008596;28;20420;-76
2022/07/17 04:39:04;;;;;;;9.40;4.05;;;;;;;11.55;93.61;96326.25;5010604;28;20050;-77
2022/07/17 04:41:29;;;;;;;8.02;3.70;;;;;;;11.58;92.80;96320.47;5008352;28;20653;-77
2022/07/17 04:43:55;;;;;;;7.68;3.80;;;;;;;11.64;91.66;96320.47;5009747;28;20510;-77
2022/07/17 04:46:20;;;;;;;6.13;3.72;;;;;;;11.78;90.76;96326.91;5008940;28;20515;-77
2022/07/17 04:48:46;;;;;;;7.88;3.92;;;;;;;11.86;90.70;96318.47;5008855;28;20117;-77
2022/07/17 04:51:11;;;;;;;5.90;4.03;;;;;;;11.93;91.13;96316.44;5009255;28;20038;-77
2022/07/17 04:53:37;;;;;;;9.02;3.72;;;;;;;12.08;91.21;96314.91;5007405;28;20038;-77
2022/07/17 04:56:03;;;;;;;6.60;3.45;;;;;;;12.09;91.27;96311.22;5007847;28;20046;-77
2022/07/17 04:58:29;;;;;;;8.20;4.00;;;;;;;12.16;91.62;96322.31;5008385;28;20057;-77
2022/07/17 05:00:54;;;;;;;7.20;3.75;;;;;;;12.30;91.24;96318.13;5008058;28;20040;-77
2022/07/17 05:03:20;;;;;;;6.22;4.00;;;;;;;12.42;91.61;96317.91;5006350;28;20091;-77
2022/07/17 05:05:45;;;;;;;7.07;4.18;;;;;;;12.49;91.31;96317.66;5008132;28;20590;-77
2022/07/17 05:08:11;;;;;;;5.90;3.78;;;;;;;12.47;92.43;96319.78;5025019;28;20045;-77
2022/07/17 05:10:36;;;;;;;7.35;3.60;;;;;;;12.60;92.47;96315.84;5009794;28;20506;-77
2022/07/17 05:13:02;;;;;;;6.03;3.63;;;;;;;12.69;93.02;96318.75;5010715;28;20120;-77
2022/07/17 05:15:27;;;;;;;6.07;3.83;;;;;;;12.86;91.78;96318.47;5010222;28;20125;-77
2022/07/17 05:17:53;;;;;;;7.80;3.83;;;;;;;13.00;91.91;96319.53;5009497;28;20054;-77
2022/07/17 05:20:18;;;;;;;5.80;3.85;;;;;;;13.04;92.12;96314.53;5010712;28;20038;-77
2022/07/17 05:22:44;;;;;;;6.93;3.85;;;;;;;13.10;92.62;96313.47;5012141;28;20415;-78
2022/07/17 05:25:09;;;;;;;7.65;3.88;;;;;;;13.16;93.17;96317.72;5028076;28;20046;-78
2022/07/17 05:27:35;;;;;;;7.07;4.00;;;;;;;13.27;92.95;96318.47;5013233;28;20046;-78
2022/07/17 05:30:00;;;;;;;8.00;4.03;;;;;;;13.31;92.48;96314.25;5013431;28;20053;-77
2022/07/17 05:32:26;;;;;;;9.02;4.32;;;;;;;13.39;89.38;96319.03;5013279;28;20049;-77
2022/07/17 05:34:51;;;;;;;10.10;4.07;;;;;;;13.42;91.05;96320.31;5014323;28;20059;-77
2022/07/17 05:37:17;;;;;;;8.85;4.18;;;;;;;13.53;89.76;96319.25;5018594;28;20046;-77
2022/07/17 05:39:42;;;;;;;9.35;4.18;;;;;;;13.64;89.83;96323.44;5013694;28;20423;-77
2022/07/17 05:42:08;;;;;;;11.48;4.28;;;;;;;13.71;88.11;96314.47;5028394;28;20416;-77
2022/07/17 05:44:33;;;;;;;5.78;4.20;;;;;;;13.79;88.57;96313.88;5012644;28;20049;-77
2022/07/17 05:46:58;;;;;;;9.57;4.30;;;;;;;13.90;87.60;96320.72;5014027;28;20037;-77
2022/07/17 05:49:24;;;;;;;5.93;3.90;;;;;;;14.29;81.61;96317.38;5026830;28;20041;-77
2022/07/17 05:51:49;;;;;;;7.25;4.40;;;;;;;14.56;80.99;96310.88;5007753;28;20042;-77
2022/07/17 05:54:15;;;;;;;6.93;4.18;;;;;;;14.65;82.60;96314.56;5009392;28;20050;-78
2022/07/17 05:56:40;;;;;;;7.10;4.55;;;;;;;14.71;80.07;96318.75;5026665;28;20487;-77
2022/07/17 05:59:06;;;;;;;9.85;4.15;;;;;;;14.69;82.04;96318.22;5012590;28;20073;-77
2022/07/17 06:01:31;;;;;;;6.75;3.90;;;;;;;14.66;83.91;96321.44;5012089;28;20037;-77
2022/07/17 06:03:57;;;;;;;9.27;4.22;;;;;;;14.70;81.63;96321.69;5011936;28;20034;-77
2022/07/17 06:06:22;;;;;;;8.57;4.13;;;;;;;14.82;82.75;96321.34;5010227;28;20671;-76
2022/07/17 06:08:48;;;;;;;6.05;4.20;;;;;;;14.83;81.17;96321.06;5012192;28;20041;-77
2022/07/17 06:11:13;;;;;;;7.68;4.40;;;;;;;14.79;81.78;96316.59;5011292;28;20133;-77
2022/07/17 06:13:39;;;;;;;7.38;3.95;;;;;;;14.97;77.15;96326.53;5012538;28;20507;-77
2022/07/17 06:16:04;;;;;;;6.07;3.92;;;;;;;15.01;76.99;96313.50;5011364;28;20469;-77
2022/07/17 06:18:30;;;;;;;5.38;4.00;;;;;;;15.21;76.88;96315.19;5012556;28;20050;-77
2022/07/17 06:20:55;;;;;;;6.85;3.92;;;;;;;15.22;77.94;96322.06;5012736;28;20041;-77
2022/07/17 06:23:21;;;;;;;5.85;3.90;;;;;;;15.17;78.42;96330.06;5011515;28;20492;-77
2022/07/17 06:25:46;;;;;;;8.90;4.10;;;;;;;15.41;75.25;96317.66;5013799;28;20038;-78
2022/07/17 06:28:12;;;;;;;9.23;4.03;;;;;;;15.44;75.92;96328.78;5014990;28;20045;-77
2022/07/17 06:30:37;;;;;;;7.05;3.97;;;;;;;15.50;75.38;96327.63;5013067;28;20073;-78
2022/07/17 06:33:03;;;;;;;9.75;4.15;;;;;;;15.57;76.65;96333.41;5013658;28;20045;-76
2022/07/17 06:35:30;;;;;;;5.13;3.60;;;;;;;16.07;69.41;96320.66;5011727;28;20037;-77
2022/07/17 06:37:56;;;;;;;7.85;3.97;;;;;;;16.18;70.88;96325.88;5010153;28;20161;-76
2022/07/17 06:40:22;;;;;;;10.18;3.78;;;;;;;15.98;71.50;96322.38;5008369;28;20041;-77
2022/07/17 06:42:48;;;;;;;5.43;3.60;;;;;;;15.92;71.38;96334.16;5010440;28;20096;-76
2022/07/17 06:45:13;;;;;;;8.68;3.80;;;;;;;16.21;68.06;96325.31;5011312;28;20042;-76
2022/07/17 06:47:39;;;;;;;6.85;3.83;;;;;;;16.55;66.24;96324.31;5007456;28;20037;-76
2022/07/17 06:50:06;;;;;;;6.85;3.78;;;;;;;16.95;65.30;96322.16;5008541;28;20054;-76
2022/07/17 06:52:31;;;;;;;8.70;3.50;;;;;;;17.09;64.02;96322.97;5011353;28;20034;-76
2022/07/17 06:54:57;;;;;;;5.93;3.75;;;;;;;17.48;60.95;96324.47;5008839;28;20038;-77
2022/07/17 06:57:23;;;;;;;10.05;4.00;;;;;;;17.55;62.14;96325.94;5003021;28;20105;-77
2022/07/17 06:59:48;;;;;;;5.97;3.55;;;;;;;17.65;59.53;96328.41;5007218;28;20053;-76
2022/07/17 07:02:14;;;;;;;7.45;3.80;;;;;;;17.46;62.05;96325.84;5011974;28;20504;-76
2022/07/17 07:04:39;;;;;;;6.97;3.70;;;;;;;17.66;59.04;96336.09;5012735;28;20092;-78
2022/07/17 07:07:05;;;;;;;6.57;4.10;;;;;;;17.48;58.46;96332.44;5011953;28;20077;-80
2022/07/17 07:09:30;;;;;;;7.93;3.83;;;;;;;17.67;57.38;96337.69;5028426;28;20496;-78
2022/07/17 07:11:56;;;;;;;7.20;3.90;;;;;;;17.79;57.12;96334.53;5003169;28;20045;-78
2022/07/17 07:14:21;;;;;;;7.47;3.55;;;;;;;18.13;56.50;96332.59;5010547;28;20092;-78
2022/07/17 07:16:47;;;;;;;6.22;3.55;;;;;;;18.06;55.51;96333.00;5011684;28;20049;-78
2022/07/17 07:19:12;;;;;;;5.43;3.53;;;;;;;18.03;57.01;96328.28;5012114;28;20042;-80
2022/07/17 07:21:38;;;;;;;6.53;3.70;;;;;;;18.28;55.65;96328.84;5013527;28;20496;-80
2022/07/17 07:24:04;;;;;;;5.63;3.55;;;;;;;18.33;53.16;96331.38;5014037;28;20132;-78
2022/07/17 07:26:29;;;;;;;9.60;3.75;;;;;;;18.20;54.76;96329.53;5011432;28;20042;-79
2022/07/17 07:28:55;;;;;;;6.93;3.40;;;;;;;18.11;56.82;96334.78;5013177;28;20042;-80
2022/07/17 07:31:21;;;;;;;6.20;3.67;;;;;;;18.20;54.83;96332.97;5028433;28;20030;-79
2022/07/17 07:33:46;;;;;;;9.77;3.78;;;;;;;18.59;53.23;96328.97;5013401;28;20042;-79
2022/07/17 07:36:12;;;;;;;7.25;3.50;;;;;;;18.81;52.05;96336.19;5027425;28;20042;-78
2022/07/17 07:38:37;;;;;;;6.25;3.67;;;;;;;18.84;52.32;96330.25;5008692;28;20415;-78
2022/07/17 07:41:04;;;;;;;4.82;3.42;;;;;;;18.78;53.41;96336.81;5013443;28;20041;-79
2022/07/17 07:43:30;;;;;;;4.90;3.45;;;;;;;19.07;51.13;96332.97;5012667;28;20116;-78
2022/07/17 07:45:55;;;;;;;6.45;3.40;;;;;;;18.78;52.47;96328.81;5013637;28;20050;-78
2022/07/17 07:48:21;;;;;;;4.75;3.30;;;;;;;19.07;52.11;96337.53;5012506;28;20604;-80
2022/07/17 07:50:46;;;;;;;6.32;3.55;;;;;;;18.92;53.70;96335.97;5011432;28;20049;-77
2022/07/17 07:53:12;;;;;;;4.88;3.28;;;;;;;18.89;53.84;96336.59;5028432;28;20117;-78
2022/07/17 07:55:38;;;;;;;6.40;3.50;;;;;;;19.31;51.57;96331.84;5013588;28;20534;-79
2022/07/17 07:58:07;;;;;;;6.63;3.60;;;;;;;19.32;51.55;96333.41;5005643;28;20054;-79
2022/07/17 08:00:33;;;;;;;6.45;3.45;;;;;;;19.26;50.15;96331.97;5013068;28;20048;-78
2022/07/17 08:02:59;;;;;;;4.07;2.90;;;;;;;19.20;50.73;96329.44;5010458;28;20404;-79
2022/07/17 08:05:25;;;;;;;5.50;3.50;;;;;;;19.21;52.04;96338.25;5011535;28;20042;-80
2022/07/17 08:07:50;;;;;;;5.60;3.40;;;;;;;19.31;49.56;96331.84;5008003;28;20551;-79
2022/07/17 08:10:16;;;;;;;5.05;3.30;;;;;;;19.29;52.35;96334.03;5010717;28;20042;-79
2022/07/17 08:12:41;;;;;;;6.40;3.25;;;;;;;19.65;49.16;96325.91;5012517;28;20050;-78
2022/07/17 08:15:07;;;;;;;6.15;3.53;;;;;;;19.66;49.02;96326.69;5012319;28;20096;-78
2022/07/17 08:17:32;;;;;;;7.22;3.30;;;;;;;19.70;47.94;96333.00;5012532;28;20050;-78
2022/07/17 08:19:58;;;;;;;6.07;3.15;;;;;;;19.94;47.12;96334.50;5020037;28;20037;-79
2022/07/17 08:22:24;;;;;;;4.55;3.10;;;;;;;19.99;47.17;96329.03;5012705;28;20042;-83
2022/07/17 08:24:49;;;;;;;5.10;3.33;;;;;;;20.10;45.94;96332.19;5006752;28;20041;-79
2022/07/17 08:27:15;;;;;;;6.53;3.10;;;;;;;20.43;46.09;96343.31;5010850;28;20124;-79
2022/07/17 08:29:40;;;;;;;6.97;3.50;;;;;;;20.14;46.13;96336.63;5004690;28;20561;-80
2022/07/17 08:32:06;;;;;;;4.72;3.08;;;;;;;20.20;46.25;96330.03;5008243;28;20049;-79
2022/07/17 08:34:31;;;;;;;4.55;2.70;;;;;;;20.73;45.73;96330.13;5011478;28;20068;-81
2022/07/17 08:36:56;;;;;;;6.93;3.10;;;;;;;20.66;44.19;96332.44;5026356;28;20727;-83
2022/07/17 08:39:22;;;;;;;5.72;3.35;;;;;;;20.70;43.14;96336.09;5012269;28;20125;-79
2022/07/17 08:41:48;;;;;;;9.93;3.22;;;;;;;20.64;43.78;96345.34;5004559;28;20038;-78
2022/07/17 08:44:13;;;;;;;5.63;3.13;;;;;;;20.85;43.24;96349.00;5012112;28;20049;-78
2022/07/17 08:46:39;;;;;;;5.40;3.10;;;;;;;20.67;44.01;96347.44;5012110;28;20034;-78
2022/07/17 08:49:06;;;;;;;3.92;2.72;;;;;;;20.71;42.90;96343.81;5010793;28;20053;-80
2022/07/17 08:51:34;;;;;;;4.00;2.70;;;;;;;20.69;43.49;96346.03;5011643;28;20152;-79
2022/07/17 08:54:00;;;;;;;5.47;2.83;;;;;;;20.76;42.41;96340.22;5011225;28;20037;-79
2022/07/17 08:56:26;;;;;;;3.95;2.67;;;;;;;21.30;43.57;96353.22;5008409;28;20049;-80
2022/07/17 08:58:53;;;;;;;4.32;2.95;;;;;;;21.51;41.18;96353.38;5007468;28;20042;-78
2022/07/17 09:01:19;;;;;;;4.53;2.80;;;;;;;21.35;42.42;96345.03;4999049;28;20443;-80
2022/07/17 09:04:05;;;;;;;5.18;3.17;;;;;;;21.27;42.70;96337.78;5007759;28;20046;-81
2022/07/17 09:06:30;;;;;;;3.63;2.70;;;;;;;21.50;42.31;96351.75;5007018;28;20038;-80
2022/07/17 09:09:10;;;;;;;7.70;3.10;;;;;;;21.45;42.01;96346.59;5010499;28;20089;-79
2022/07/17 09:11:50;;;;;;;21.48;3.35;;;;;;;21.67;42.83;96344.81;5006540;28;20426;-80
2022/07/17 09:14:16;;;;;;;4.70;2.83;;;;;;;21.89;41.75;96347.22;5003353;28;20046;-79
2022/07/17 09:16:51;;;;;;;5.68;2.92;;;;;;;21.79;42.25;96342.22;5025907;28;20045;-79
2022/07/17 09:19:26;;;;;;;5.38;3.05;;;;;;;21.88;41.34;96344.88;5006800;28;20037;-81
2022/07/17 09:22:14;;;;;;;5.30;2.90;;;;;;;21.79;42.79;96336.88;5009019;28;20102;-81
2022/07/17 09:24:51;;;;;;;3.97;2.85;;;;;;;22.30;41.47;96345.00;5008962;28;20037;-80
2022/07/17 09:27:23;;;;;;;5.25;2.90;;;;;;;22.20;41.24;96338.09;5006912;28;20623;-80
2022/07/17 09:29:57;;;;;;;8.15;2.92;;;;;;;22.56;41.03;96342.16;5020863;28;20034;-80
2022/07/17 09:32:24;;;;;;;5.13;3.05;;;;;;;22.47;39.38;96330.72;5008234;28;20042;-80
2022/07/17 09:34:52;;;;;;;7.50;3.00;;;;;;;22.24;40.57;96336.34;5007368;28;20175;-82
2022/07/17 09:37:18;;;;;;;6.25;2.83;;;;;;;22.27;41.94;96341.06;5008566;28;20046;-80
2022/07/17 09:39:44;;;;;;;3.50;2.70;;;;;;;22.30;41.13;96335.03;5007710;28;20404;-81
2022/07/17 09:42:20;;;;;;;4.50;3.00;;;;;;;22.23;41.02;96345.50;5007675;28;20038;-80
2022/07/17 09:45:05;;;;;;;8.70;3.40;;;;;;;22.20;41.74;96346.16;5010001;28;20038;-80
2022/07/17 09:47:33;;;;;;;7.07;3.22;;;;;;;22.23;41.83;96345.50;5008420;28;20034;-80
2022/07/17 09:50:02;;;;;;;4.95;3.38;;;;;;;22.62;41.43;96340.84;5006121;28;20038;-80
2022/07/17 09:52:30;;;;;;;6.57;2.83;;;;;;;23.01;40.38;96346.88;5009873;28;20144;-80
2022/07/17 09:54:57;;;;;;;4.30;2.85;;;;;;;22.99;40.30;96343.72;5025421;28;20042;-82
2022/07/17 09:57:25;;;;;;;6.10;3.03;;;;;;;22.98;39.77;96346.75;5001050;28;20042;-80
2022/07/17 09:59:54;;;;;;;6.75;2.85;;;;;;;22.82;40.38;96350.00;5001788;28;20038;-80
2022/07/17 10:02:21;;;;;;;5.32;2.80;;;;;;;22.79;39.65;96336.47;5009812;28;20057;-81
2022/07/17 10:04:48;;;;;;;5.45;2.95;;;;;;;22.81;38.81;96348.47;5008830;28;20488;-80
2022/07/17 10:07:13;;;;;;;6.90;3.10;;;;;;;22.89;39.93;96338.75;5001354;28;20158;-82
2022/07/17 10:09:40;;;;;;;6.38;2.88;;;;;;;23.21;40.15;96339.13;5020368;28;20042;-80
2022/07/17 10:12:07;;;;;;;5.88;3.17;;;;;;;23.44;39.52;96341.44;5008013;28;20627;-79
2022/07/17 10:14:34;;;;;;;5.95;2.63;;;;;;;23.63;38.85;96343.59;5011861;28;20042;-80
2022/07/17 10:17:10;;;;;;;8.70;3.28;;;;;;;23.65;38.43;96346.75;5013251;28;20515;-82
2022/07/17 10:19:48;;;;;;;5.50;2.83;;;;;;;23.54;37.79;96346.38;5009214;28;20037;-80
2022/07/17 10:22:14;;;;;;;7.32;3.20;;;;;;;23.60;38.31;96355.78;5024866;28;20695;-80
2022/07/17 10:24:56;;;;;;;9.15;3.50;;;;;;;23.75;38.12;96340.13;5013176;28;20041;-80
2022/07/17 10:27:28;;;;;;;6.32;3.13;;;;;;;23.92;37.48;96358.78;5008580;28;20046;-80
2022/07/17 10:30:07;;;;;;;7.97;3.05;;;;;;;23.99;36.93;96367.09;5004417;28;20042;-79
2022/07/17 10:32:33;;;;;;;4.68;2.90;;;;;;;24.06;36.87;96358.44;5016400;28;20038;-79
2022/07/17 10:35:05;;;;;;;4.05;2.90;;;;;;;24.11;36.22;96352.84;5013446;28;20049;-79
2022/07/17 10:37:36;;;;;;;4.80;2.95;;;;;;;24.07;36.11;96351.97;5012641;28;20045;-80
2022/07/17 10:40:07;;;;;;;10.13;3.03;;;;;;;24.31;36.11;96347.66;5005904;28;20046;-80
2022/07/17 10:42:44;;;;;;;9.60;3.13;;;;;;;24.80;35.33;96344.94;5020389;28;20050;-79
2022/07/17 10:45:16;;;;;;;5.45;2.90;;;;;;;25.01;34.89;96344.75;5004877;28;20120;-80
2022/07/17 10:47:47;;;;;;;6.68;2.92;;;;;;;25.16;34.02;96335.13;5010975;28;20504;-80
2022/07/17 10:50:14;;;;;;;3.53;2.70;;;;;;;25.61;33.42;96341.31;5024761;28;20046;-82
2022/07/17 10:52:39;;;;;;;5.22;2.67;;;;;;;25.40;34.57;96347.75;5012676;28;20065;-80
2022/07/17 10:55:16;;;;;;;6.07;3.00;;;;;;;25.68;33.00;96349.59;5023639;28;20074;-80
2022/07/17 10:57:42;;;;;;;5.15;2.80;;;;;;;25.85;33.35;96336.91;5012292;28;20049;-80
2022/07/17 11:00:08;;;;;;;7.97;3.13;;;;;;;25.90;32.02;96334.72;5012499;28;20046;-81
2022/07/17 11:02:33;;;;;;;5.60;2.80;;;;;;;25.75;31.93;96330.88;5008442;28;20781;-80
2022/07/17 11:05:10;;;;;;;4.57;2.80;;;;;;;25.77;32.18;96325.94;5006108;28;20174;-82
2022/07/17 11:07:35;;;;;;;4.10;2.75;;;;;;;26.05;31.79;96325.09;5000205;28;20057;-80
2022/07/17 11:10:01;;;;;;;4.55;2.60;;;;;;;26.45;31.33;96332.13;5010067;28;20037;-81
2022/07/17 11:12:31;;;;;;;5.50;2.90;;;;;;;26.93;30.38;96333.91;5011479;28;20164;-80
2022/07/17 11:15:01;;;;;;;8.25;2.70;;;;;;;27.46;29.22;96317.94;5012484;28;20048;-80
2022/07/17 11:17:27;;;;;;;3.85;2.70;;;;;;;27.55;29.56;96320.38;5012192;28;20040;-80
2022/07/17 11:19:53;;;;;;;9.10;3.15;;;;;;;27.92;28.66;96324.47;5011450;28;20467;-81
2022/07/17 11:22:23;;;;;;;4.55;2.80;;;;;;;27.05;28.72;96320.25;5010523;28;21324;-79
2022/07/17 11:24:50;;;;;;;4.22;2.45;;;;;;;27.83;28.16;96311.97;5010130;28;20077;-78
2022/07/17 11:27:29;;;;;;;5.72;2.47;;;;;;;28.45;27.70;96310.97;5025028;28;20173;-79
2022/07/17 11:29:57;;;;;;;8.70;2.78;;;;;;;28.83;27.44;96314.56;5025886;28;20057;-80
2022/07/17 11:32:24;;;;;;;5.70;2.83;;;;;;;28.84;27.16;96310.69;5011843;28;20112;-79